createdAt,value
2023-05-05T00:01:07.072Z,15.30
2023-05-05T00:03:51.870Z,14.80
2023-05-05T00:06:35.205Z,13.83
2023-05-05T00:09:18.622Z,15.10
2023-05-05T00:12:01.845Z,14.97
2023-05-05T00:14:45.043Z,15.50
2023-05-05T00:17:28.378Z,15.83
2023-05-05T00:20:14.300Z,14.73
2023-05-05T00:22:57.564Z,14.57
2023-05-05T00:25:41.643Z,14.20
2023-05-05T00:28:24.987Z,14.23
2023-05-05T00:31:08.866Z,14.30
2023-05-05T00:33:52.284Z,15.33
2023-05-05T00:36:37.080Z,14.90
2023-05-05T00:39:20.459Z,14.60
2023-05-05T00:42:03.736Z,15.53
2023-05-05T00:44:47.235Z,15.33
2023-05-05T00:47:30.878Z,15.30
2023-05-05T00:50:22.880Z,16.87
2023-05-05T00:53:08.508Z,15.93
2023-05-05T00:55:52.212Z,15.17
2023-05-05T00:58:36.114Z,15.20
2023-05-05T01:01:19.780Z,15.50
2023-05-05T01:04:03.013Z,16.37
2023-05-05T01:06:55.560Z,16.53
2023-05-05T01:09:57.967Z,17.13
2023-05-05T01:12:55.251Z,17.03
2023-05-05T01:15:45.496Z,18.13
2023-05-05T01:18:36.316Z,16.63
2023-05-05T01:21:24.574Z,16.70
2023-05-05T01:24:24.762Z,16.03
2023-05-05T01:27:35.386Z,17.07
2023-05-05T01:30:29.951Z,17.77
2023-05-05T01:33:19.959Z,15.97
2023-05-05T01:36:08.968Z,15.53
2023-05-05T01:38:58.709Z,17.97
2023-05-05T01:41:45.548Z,17.00
2023-05-05T01:44:31.392Z,16.53
2023-05-05T01:47:17.995Z,17.70
2023-05-05T01:50:04.171Z,18.73
2023-05-05T01:52:48.907Z,17.17
2023-05-05T01:55:33.757Z,17.90
2023-05-05T01:58:18.576Z,18.17
2023-05-05T02:01:03.331Z,18.47
2023-05-05T02:03:48.420Z,18.87
2023-05-05T02:06:34.953Z,18.83
2023-05-05T02:09:18.693Z,18.13
2023-05-05T02:12:03.359Z,16.57
2023-05-05T02:14:48.572Z,17.70
2023-05-05T02:17:32.768Z,18.27
2023-05-05T02:20:17.457Z,17.50
2023-05-05T02:23:05.949Z,17.37
2023-05-05T02:25:53.784Z,16.63
2023-05-05T02:28:42.797Z,17.47
2023-05-05T02:31:29.123Z,17.33
2023-05-05T02:34:14.776Z,16.87
2023-05-05T02:37:02.095Z,17.37
2023-05-05T02:39:58.907Z,17.13
2023-05-05T02:42:44.645Z,15.73
2023-05-05T02:45:30.407Z,16.47
2023-05-05T02:48:14.176Z,16.07
2023-05-05T02:51:04.739Z,16.07
2023-05-05T02:53:48.629Z,17.10
2023-05-05T02:56:42.104Z,16.73
2023-05-05T02:59:36.782Z,15.70
2023-05-05T03:02:29.407Z,14.13
2023-05-05T03:05:18.931Z,15.13
2023-05-05T03:08:05.372Z,15.67
2023-05-05T03:11:01.351Z,15.90
2023-05-05T03:13:51.557Z,15.90
2023-05-05T03:16:37.526Z,15.93
2023-05-05T03:19:22.533Z,15.47
2023-05-05T03:22:08.459Z,14.63
2023-05-05T03:24:51.925Z,19.10
2023-05-05T03:27:37.734Z,13.87
2023-05-05T03:30:22.581Z,14.07
2023-05-05T03:33:06.156Z,14.90
2023-05-05T03:35:49.447Z,12.37
2023-05-05T03:38:33.610Z,12.80
2023-05-05T03:41:16.953Z,15.70
2023-05-05T03:44:00.078Z,13.23
2023-05-05T03:46:44.702Z,16.87
2023-05-05T03:49:27.953Z,13.13
2023-05-05T03:52:15.088Z,13.90
2023-05-05T03:55:00.198Z,12.37
2023-05-05T03:57:43.371Z,14.37
2023-05-05T04:00:29.108Z,13.13
2023-05-05T04:03:13.918Z,13.07
2023-05-05T04:05:58.530Z,13.63
2023-05-05T04:08:41.686Z,12.30
2023-05-05T04:11:26.413Z,12.80
2023-05-05T04:14:10.632Z,14.17
2023-05-05T04:16:54.681Z,11.97
2023-05-05T04:19:39.288Z,12.87
2023-05-05T04:22:25.001Z,12.93
2023-05-05T04:25:09.166Z,10.80
2023-05-05T04:27:52.739Z,10.77
2023-05-05T04:30:38.853Z,11.67
2023-05-05T04:33:22.127Z,12.00
2023-05-05T04:36:07.347Z,12.93
2023-05-05T04:38:50.867Z,11.00
2023-05-05T04:41:34.180Z,13.17
2023-05-05T04:44:17.335Z,11.80
2023-05-05T04:47:02.028Z,12.77
2023-05-05T04:49:46.228Z,12.93
2023-05-05T04:52:30.974Z,14.40
2023-05-05T04:55:14.492Z,13.70
2023-05-05T04:57:57.710Z,13.30
2023-05-05T05:00:40.993Z,13.40
2023-05-05T05:03:24.500Z,13.40
2023-05-05T05:06:07.966Z,12.47
2023-05-05T05:08:54.990Z,14.13
2023-05-05T05:11:40.684Z,11.93
2023-05-05T05:14:24.058Z,13.10
2023-05-05T05:17:07.288Z,14.00
2023-05-05T05:19:50.438Z,14.53
2023-05-05T05:22:34.933Z,12.77
2023-05-05T05:25:19.628Z,12.63
2023-05-05T05:28:10.182Z,11.77
2023-05-05T05:30:54.324Z,11.30
2023-05-05T05:33:37.602Z,11.50
2023-05-05T05:36:20.837Z,11.97
2023-05-05T05:39:05.472Z,12.93
2023-05-05T05:41:50.245Z,13.30
2023-05-05T05:44:33.744Z,14.07
2023-05-05T05:47:18.307Z,13.47
2023-05-05T05:50:01.613Z,14.33
2023-05-05T05:52:44.777Z,11.87
2023-05-05T05:55:28.307Z,11.60
2023-05-05T05:58:12.948Z,11.27
2023-05-05T06:00:56.474Z,10.90
2023-05-05T06:03:39.776Z,10.53
2023-05-05T06:06:23.854Z,9.77
2023-05-05T06:09:06.964Z,10.73
2023-05-05T06:11:50.173Z,9.90
2023-05-05T06:14:34.794Z,10.43
2023-05-05T06:17:17.945Z,10.20
2023-05-05T06:20:01.135Z,11.47
2023-05-05T06:22:44.608Z,10.57
2023-05-05T06:25:28.291Z,9.80
2023-05-05T06:28:11.531Z,9.37
2023-05-05T06:30:56.672Z,9.73
2023-05-05T06:33:39.838Z,10.30
2023-05-05T06:36:23.156Z,7.93
2023-05-05T06:39:09.434Z,7.57
2023-05-05T06:41:52.576Z,8.60
2023-05-05T06:44:37.655Z,7.87
2023-05-05T06:47:22.355Z,8.03
2023-05-05T06:50:06.309Z,8.43
2023-05-05T06:52:49.766Z,8.20
2023-05-05T06:55:35.052Z,8.23
2023-05-05T06:58:20.703Z,8.10
2023-05-05T07:01:04.187Z,8.70
2023-05-05T07:03:50.172Z,9.30
2023-05-05T07:06:35.966Z,8.30
2023-05-05T07:09:21.550Z,8.47
2023-05-05T07:12:05.483Z,8.90
2023-05-05T07:14:48.591Z,8.20
2023-05-05T07:17:31.853Z,8.37
2023-05-05T07:20:17.715Z,8.03
2023-05-05T07:23:01.480Z,8.50
2023-05-05T07:25:45.133Z,8.77
2023-05-05T07:28:36.091Z,8.07
2023-05-05T07:31:19.788Z,8.23
2023-05-05T07:34:03.015Z,7.50
2023-05-05T07:36:47.802Z,7.13
2023-05-05T07:39:31.319Z,8.17
2023-05-05T07:42:14.807Z,8.67
2023-05-05T07:44:58.358Z,8.30
2023-05-05T07:47:41.764Z,7.90
2023-05-05T07:50:25.219Z,8.27
2023-05-05T07:53:14.386Z,8.20
2023-05-05T07:55:57.854Z,8.63
2023-05-05T07:58:41.035Z,8.20
2023-05-05T08:01:24.296Z,8.10
2023-05-05T08:04:08.105Z,8.10
2023-05-05T08:06:51.272Z,7.70
2023-05-05T08:09:36.033Z,7.30
2023-05-05T08:12:21.871Z,7.20
2023-05-05T08:15:05.487Z,7.33
2023-05-05T08:17:49.384Z,7.47
2023-05-05T08:20:32.896Z,8.00
2023-05-05T08:23:16.284Z,7.80
2023-05-05T08:26:00.862Z,8.00
2023-05-05T08:28:44.249Z,7.67
2023-05-05T08:31:27.791Z,6.73
2023-05-05T08:34:11.322Z,6.63
2023-05-05T08:36:54.731Z,6.30
2023-05-05T08:39:38.115Z,6.17
2023-05-05T08:42:33.221Z,5.10
2023-05-05T08:45:20.013Z,6.30
2023-05-05T08:48:05.981Z,6.80
2023-05-05T08:50:59.536Z,5.63
2023-05-05T08:53:50.207Z,5.73
2023-05-05T08:56:36.364Z,6.60
2023-05-05T08:59:25.301Z,6.03
2023-05-05T09:02:10.092Z,5.77
2023-05-05T09:04:53.563Z,7.23
2023-05-05T09:07:37.716Z,7.10
2023-05-05T09:10:21.581Z,7.57
2023-05-05T09:13:10.113Z,7.40
2023-05-05T09:15:54.800Z,8.93
2023-05-05T09:18:41.124Z,8.57
2023-05-05T09:21:26.136Z,7.17
2023-05-05T09:24:11.050Z,7.80
2023-05-05T09:26:56.937Z,9.57
2023-05-05T09:29:41.731Z,8.83
2023-05-05T09:32:30.574Z,7.60
2023-05-05T09:35:14.437Z,8.10
2023-05-05T09:37:58.450Z,7.50
2023-05-05T09:40:47.729Z,7.03
2023-05-05T09:43:30.816Z,6.87
2023-05-05T09:46:14.391Z,6.20
2023-05-05T09:49:12.790Z,7.13
2023-05-05T09:51:56.264Z,7.10
2023-05-05T09:54:39.802Z,7.80
2023-05-05T09:57:30.722Z,7.37
2023-05-05T10:00:15.750Z,6.60
2023-05-05T10:03:04.124Z,6.00
2023-05-05T10:05:54.156Z,6.37
2023-05-05T10:08:37.598Z,7.93
2023-05-05T10:11:21.015Z,8.10
2023-05-05T10:14:08.110Z,7.80
2023-05-05T10:16:52.882Z,6.97
2023-05-05T10:19:37.203Z,7.47
2023-05-05T10:22:24.509Z,7.83
2023-05-05T10:25:12.688Z,6.83
2023-05-05T10:28:02.997Z,9.17
2023-05-05T10:30:50.454Z,7.43
2023-05-05T10:33:43.175Z,6.57
2023-05-05T10:36:28.087Z,6.50
2023-05-05T10:39:13.186Z,10.03
2023-05-05T10:41:56.549Z,8.50
2023-05-05T10:44:42.386Z,9.00
2023-05-05T10:47:28.310Z,8.67
2023-05-05T10:50:26.408Z,7.73
2023-05-05T10:53:18.556Z,8.80
2023-05-05T10:56:07.655Z,7.93
2023-05-05T10:58:59.746Z,7.67
2023-05-05T11:01:44.353Z,8.80
2023-05-05T11:04:28.204Z,8.40
2023-05-05T11:07:26.039Z,7.37
2023-05-05T11:10:11.227Z,7.13
2023-05-05T11:13:21.581Z,7.50
2023-05-05T11:16:07.066Z,6.57
2023-05-05T11:18:50.488Z,6.63
2023-05-05T11:22:03.150Z,6.93
2023-05-05T11:24:47.391Z,12.97
2023-05-05T11:28:02.988Z,8.37
2023-05-05T11:31:19.260Z,7.80
2023-05-05T11:34:29.201Z,6.70
2023-05-05T11:37:12.754Z,6.97
2023-05-05T11:40:11.674Z,7.13
2023-05-05T11:43:05.971Z,8.03
2023-05-05T11:45:49.197Z,8.13
2023-05-05T11:48:36.678Z,7.90
2023-05-05T11:51:22.409Z,7.33
2023-05-05T11:54:20.023Z,7.80
2023-05-05T11:57:05.687Z,7.97
2023-05-05T11:59:54.408Z,7.83
2023-05-05T12:02:37.775Z,8.20
2023-05-05T12:05:22.241Z,26.73
2023-05-05T12:08:08.986Z,9.27
2023-05-05T12:10:52.306Z,9.73
2023-05-05T12:13:36.132Z,7.40
2023-05-05T12:16:20.177Z,7.83
2023-05-05T12:19:07.708Z,7.83
2023-05-05T12:21:51.050Z,13.70
2023-05-05T12:24:38.483Z,8.33
2023-05-05T12:27:22.072Z,7.73
2023-05-05T12:30:16.970Z,8.77
2023-05-05T12:33:04.450Z,7.70
2023-05-05T12:35:58.139Z,7.73
2023-05-05T12:38:42.018Z,9.47
2023-05-05T12:42:15.119Z,7.80
2023-05-05T12:44:59.741Z,8.90
2023-05-05T12:47:44.166Z,11.47
2023-05-05T12:50:33.800Z,12.53
2023-05-05T12:53:23.040Z,7.60
2023-05-05T12:56:06.488Z,9.93
2023-05-05T12:58:50.083Z,23.23
2023-05-05T13:01:36.021Z,13.20
2023-05-05T13:04:20.180Z,10.43
2023-05-05T13:07:14.021Z,9.07
2023-05-05T13:10:10.682Z,10.30
2023-05-05T13:12:56.756Z,11.00
2023-05-05T13:15:40.315Z,7.87
2023-05-05T13:18:25.214Z,10.47
2023-05-05T13:21:08.601Z,8.23
2023-05-05T13:23:52.175Z,9.27
2023-05-05T13:26:35.891Z,9.07
2023-05-05T13:29:19.798Z,8.87
2023-05-05T13:32:03.049Z,8.87
2023-05-05T13:34:47.803Z,10.23
2023-05-05T13:37:31.049Z,8.30
2023-05-05T13:40:15.392Z,13.77
2023-05-05T13:42:58.893Z,10.80
2023-05-05T13:46:02.789Z,12.07
2023-05-05T13:48:56.387Z,11.13
2023-05-05T13:51:41.881Z,13.70
2023-05-05T13:54:25.228Z,8.93
2023-05-05T13:57:09.013Z,9.30
2023-05-05T13:59:52.270Z,12.33
2023-05-05T14:02:36.116Z,8.73
2023-05-05T14:05:19.573Z,12.43
2023-05-05T14:08:04.609Z,9.17
2023-05-05T14:10:48.629Z,10.40
2023-05-05T14:13:34.173Z,8.50
2023-05-05T14:16:17.614Z,8.30
2023-05-05T14:19:01.039Z,12.07
2023-05-05T14:21:44.329Z,9.27
2023-05-05T14:24:29.088Z,9.87
2023-05-05T14:27:12.550Z,8.70
2023-05-05T14:30:03.870Z,8.30
2023-05-05T14:32:47.429Z,10.00
2023-05-05T14:35:31.643Z,11.50
2023-05-05T14:38:21.030Z,10.60
2023-05-05T14:41:06.901Z,10.70
2023-05-05T14:43:53.195Z,8.67
2023-05-05T14:46:36.564Z,11.50
2023-05-05T14:49:19.772Z,9.83
2023-05-05T14:52:03.086Z,11.23
2023-05-05T14:54:50.012Z,11.30
2023-05-05T14:57:34.882Z,9.57
2023-05-05T15:00:18.648Z,9.90
2023-05-05T15:03:02.009Z,10.13
2023-05-05T15:05:47.546Z,11.70
2023-05-05T15:08:31.053Z,9.23
2023-05-05T15:11:15.118Z,11.30
2023-05-05T15:13:59.999Z,11.10
2023-05-05T15:16:43.376Z,11.37
2023-05-05T15:19:26.712Z,8.93
2023-05-05T15:22:09.881Z,8.77
2023-05-05T15:24:53.356Z,7.77
2023-05-05T15:27:38.179Z,7.80
2023-05-05T15:30:25.397Z,9.07
2023-05-05T15:33:08.582Z,7.80
2023-05-05T15:35:51.810Z,8.67
2023-05-05T15:38:35.263Z,8.13
2023-05-05T15:42:12.700Z,22.83
2023-05-05T15:44:56.119Z,9.10
2023-05-05T15:47:42.050Z,8.60
2023-05-05T15:50:25.364Z,8.80
2023-05-05T15:53:08.628Z,8.87
2023-05-05T15:55:52.069Z,9.73
2023-05-05T15:58:36.751Z,8.83
2023-05-05T16:01:20.394Z,8.87
2023-05-05T16:04:05.512Z,11.60
2023-05-05T16:06:56.161Z,10.60
2023-05-05T16:09:39.386Z,9.07
2023-05-05T16:12:22.987Z,9.47
2023-05-05T16:15:07.433Z,8.87
2023-05-05T16:17:51.638Z,10.23
2023-05-05T16:20:36.280Z,9.67
2023-05-05T16:23:19.761Z,8.57
2023-05-05T16:26:04.170Z,10.93
2023-05-05T16:28:47.338Z,8.80
2023-05-05T16:31:34.004Z,9.97
2023-05-05T16:34:17.589Z,8.77
2023-05-05T16:37:02.647Z,10.67
2023-05-05T16:39:48.111Z,8.27
2023-05-05T16:42:31.218Z,8.17
2023-05-05T16:45:17.572Z,9.87
2023-05-05T16:48:02.290Z,10.07
2023-05-05T16:50:45.882Z,9.90
2023-05-05T16:53:30.734Z,11.30
2023-05-05T16:56:14.023Z,9.83
2023-05-05T16:58:57.213Z,10.93
2023-05-05T17:01:40.497Z,18.07
2023-05-05T17:04:23.693Z,32.57
2023-05-05T17:07:07.326Z,18.80
2023-05-05T17:09:52.108Z,12.60
2023-05-05T17:12:38.958Z,9.07
2023-05-05T17:15:22.452Z,9.27
2023-05-05T17:18:06.537Z,12.20
2023-05-05T17:20:51.448Z,11.20
2023-05-05T17:23:42.038Z,8.87
2023-05-05T17:26:27.854Z,9.70
2023-05-05T17:29:15.507Z,9.27
2023-05-05T17:31:58.775Z,9.30
2023-05-05T17:34:42.606Z,9.23
2023-05-05T17:37:26.565Z,9.60
2023-05-05T17:40:10.450Z,9.00
2023-05-05T17:42:55.261Z,10.10
2023-05-05T17:45:38.853Z,10.40
2023-05-05T17:48:22.232Z,10.13
2023-05-05T17:51:06.014Z,9.90
2023-05-05T17:53:51.050Z,14.93
2023-05-05T17:56:37.192Z,11.60
2023-05-05T17:59:22.121Z,10.00
2023-05-05T18:02:05.942Z,9.57
2023-05-05T18:04:49.297Z,8.90
2023-05-05T18:07:33.709Z,10.13
2023-05-05T18:10:16.856Z,10.77
2023-05-05T18:13:00.046Z,9.53
2023-05-05T18:15:45.022Z,9.93
2023-05-05T18:18:28.553Z,9.73
2023-05-05T18:21:12.383Z,10.67
2023-05-05T18:24:01.694Z,10.10
2023-05-05T18:26:52.662Z,10.20
2023-05-05T18:29:37.525Z,11.00
2023-05-05T18:32:22.409Z,11.40
2023-05-05T18:35:06.525Z,11.10
2023-05-05T18:37:50.349Z,10.47
2023-05-05T18:40:33.658Z,11.50
2023-05-05T18:43:16.881Z,11.97
2023-05-05T18:46:00.333Z,11.17
2023-05-05T18:48:44.959Z,11.93
2023-05-05T18:51:28.809Z,12.90
2023-05-05T18:54:12.080Z,14.97
2023-05-05T18:56:55.246Z,13.93
2023-05-05T18:59:38.661Z,12.47
2023-05-05T19:02:24.093Z,12.03
2023-05-05T19:05:10.240Z,13.33
2023-05-05T19:07:55.408Z,16.13
2023-05-05T19:10:39.173Z,17.97
2023-05-05T19:13:23.717Z,16.47
2023-05-05T19:16:07.690Z,14.63
2023-05-05T19:18:51.285Z,15.33
2023-05-05T19:21:36.003Z,14.53
2023-05-05T19:24:19.234Z,14.13
2023-05-05T19:27:04.023Z,13.30
2023-05-05T19:29:49.356Z,14.50
2023-05-05T19:32:33.182Z,14.13
2023-05-05T19:35:18.892Z,14.57
2023-05-05T19:38:03.434Z,14.70
2023-05-05T19:40:46.845Z,14.33
2023-05-05T19:43:30.277Z,16.03
2023-05-05T19:46:14.032Z,38.03
2023-05-05T19:48:57.510Z,19.50
2023-05-05T19:51:43.361Z,20.00
2023-05-05T19:54:29.196Z,17.63
2023-05-05T19:57:12.755Z,18.50
2023-05-05T19:59:56.185Z,18.70
2023-05-05T20:02:39.820Z,19.10
2023-05-05T20:05:23.487Z,17.80
2023-05-05T20:08:07.341Z,19.10
2023-05-05T20:10:53.350Z,17.70
2023-05-05T20:13:38.287Z,17.73
2023-05-05T20:16:24.900Z,18.67
2023-05-05T20:19:08.108Z,17.27
2023-05-05T20:21:51.252Z,17.57
2023-05-05T20:24:34.671Z,16.70
2023-05-05T20:27:19.432Z,17.40
2023-05-05T20:30:03.178Z,20.53
2023-05-05T20:32:46.614Z,21.20
2023-05-05T20:35:29.753Z,20.87
2023-05-05T20:38:14.977Z,21.33
2023-05-05T20:40:58.133Z,21.50
2023-05-05T20:43:43.080Z,19.43
2023-05-05T20:46:26.436Z,18.77
2023-05-05T20:49:09.560Z,18.43
2023-05-05T20:51:52.964Z,18.93
2023-05-05T20:54:39.023Z,18.57
2023-05-05T20:57:22.199Z,17.30
2023-05-05T21:00:09.026Z,17.60
2023-05-05T21:02:57.091Z,17.67
2023-05-05T21:05:40.984Z,18.70
2023-05-05T21:08:24.072Z,18.03
2023-05-05T21:11:10.160Z,18.30
2023-05-05T21:13:53.891Z,19.50
2023-05-05T21:16:38.432Z,18.23
2023-05-05T21:19:21.642Z,18.57
2023-05-05T21:22:05.408Z,17.07
2023-05-05T21:24:48.672Z,17.43
2023-05-05T21:27:32.318Z,16.30
2023-05-05T21:30:16.618Z,16.73
2023-05-05T21:33:01.864Z,16.70
2023-05-05T21:35:45.114Z,15.53
2023-05-05T21:38:28.314Z,16.60
2023-05-05T21:41:11.500Z,16.23
2023-05-05T21:43:54.987Z,15.00
2023-05-05T21:46:38.729Z,15.93
2023-05-05T21:49:23.509Z,16.07
2023-05-05T21:52:06.781Z,15.73
2023-05-05T21:54:50.208Z,15.77
2023-05-05T21:57:34.138Z,16.40
2023-05-05T22:00:17.874Z,16.07
2023-05-05T22:03:01.002Z,17.07
2023-05-05T22:05:46.280Z,16.53
2023-05-05T22:08:29.440Z,15.90
2023-05-05T22:11:12.504Z,15.50
2023-05-05T22:13:56.511Z,15.60
2023-05-05T22:16:40.062Z,17.80
2023-05-05T22:19:23.728Z,15.97
2023-05-05T22:22:08.743Z,16.13
2023-05-05T22:24:51.907Z,15.83
2023-05-05T22:27:35.534Z,15.73
2023-05-05T22:30:18.817Z,16.37
2023-05-05T22:33:02.272Z,16.50
2023-05-05T22:35:46.358Z,16.17
2023-05-05T22:38:31.002Z,15.87
2023-05-05T22:41:14.252Z,16.13
2023-05-05T22:43:58.148Z,17.20
2023-05-05T22:46:42.209Z,17.73
2023-05-05T22:49:25.834Z,16.23
2023-05-05T22:52:09.223Z,17.00
2023-05-05T22:54:53.844Z,16.03
2023-05-05T22:57:37.301Z,16.73
2023-05-05T23:00:20.904Z,15.87
2023-05-05T23:03:04.169Z,16.63
2023-05-05T23:05:47.362Z,16.80
2023-05-05T23:08:30.553Z,17.30
2023-05-05T23:11:15.797Z,16.43
2023-05-05T23:13:59.176Z,16.60
2023-05-05T23:16:42.943Z,16.73
2023-05-05T23:19:26.470Z,16.47
2023-05-05T23:22:10.231Z,15.60
2023-05-05T23:24:53.452Z,16.17
2023-05-05T23:27:39.846Z,16.80
2023-05-05T23:30:23.171Z,17.57
2023-05-05T23:33:06.307Z,17.40
2023-05-05T23:35:49.851Z,16.23
2023-05-05T23:38:33.002Z,17.40
2023-05-05T23:41:16.433Z,17.40
2023-05-05T23:44:01.020Z,16.67
2023-05-05T23:46:44.298Z,16.87
2023-05-05T23:49:27.422Z,16.57
2023-05-05T23:52:10.822Z,16.97
2023-05-05T23:54:54.014Z,18.53
2023-05-05T23:57:37.638Z,16.37
